createdAt,value
2022-12-25T00:02:03.931Z,49.28
2022-12-25T00:04:30.928Z,58.10
2022-12-25T00:06:57.751Z,62.50
2022-12-25T00:09:24.761Z,54.97
2022-12-25T00:11:51.601Z,46.58
2022-12-25T00:14:18.515Z,60.83
2022-12-25T00:16:45.507Z,55.70
2022-12-25T00:19:12.430Z,58.65
2022-12-25T00:21:39.363Z,55.60
2022-12-25T00:24:06.778Z,59.25
2022-12-25T00:26:33.628Z,52.42
2022-12-25T00:29:00.593Z,51.03
2022-12-25T00:31:28.056Z,63.72
2022-12-25T00:33:54.938Z,60.35
2022-12-25T00:36:23.169Z,54.65
2022-12-25T00:38:50.319Z,47.90
2022-12-25T00:41:20.287Z,51.83
2022-12-25T00:43:47.171Z,55.60
2022-12-25T00:46:14.211Z,62.78
2022-12-25T00:48:41.463Z,60.50
2022-12-25T00:51:11.808Z,59.63
2022-12-25T00:53:39.056Z,50.47
2022-12-25T00:56:07.415Z,56.70
2022-12-25T00:58:35.206Z,54.38
2022-12-25T01:01:02.305Z,59.85
2022-12-25T01:03:29.555Z,61.88
2022-12-25T01:06:01.151Z,52.57
2022-12-25T01:08:30.838Z,50.53
2022-12-25T01:11:04.100Z,49.97
2022-12-25T01:13:31.499Z,43.97
2022-12-25T01:15:58.387Z,49.08
2022-12-25T01:18:25.748Z,47.10
2022-12-25T01:20:52.756Z,42.25
2022-12-25T01:23:19.678Z,48.05
2022-12-25T01:25:46.587Z,48.55
2022-12-25T01:28:13.615Z,45.72
2022-12-25T01:30:40.528Z,49.33
2022-12-25T01:33:07.477Z,46.97
2022-12-25T01:35:34.280Z,41.50
2022-12-25T01:38:01.255Z,47.15
2022-12-25T01:40:28.296Z,49.15
2022-12-25T01:42:55.253Z,50.07
2022-12-25T01:45:28.415Z,45.22
2022-12-25T01:47:55.236Z,44.42
2022-12-25T01:50:22.935Z,42.92
2022-12-25T01:52:51.024Z,41.58
2022-12-25T01:55:18.350Z,43.77
2022-12-25T01:57:45.712Z,46.75
2022-12-25T02:00:13.757Z,45.83
2022-12-25T02:02:41.626Z,41.67
2022-12-25T02:05:17.065Z,48.55
2022-12-25T02:07:44.745Z,48.37
2022-12-25T02:10:12.143Z,48.40
2022-12-25T02:12:41.676Z,43.72
2022-12-25T02:15:12.062Z,44.90
2022-12-25T02:17:53.211Z,49.65
2022-12-25T02:20:33.802Z,44.03
2022-12-25T02:23:25.600Z,51.83
2022-12-25T02:26:14.692Z,44.80
2022-12-25T02:29:03.018Z,43.20
2022-12-25T02:31:44.204Z,44.08
2022-12-25T02:34:53.271Z,50.47
2022-12-25T02:37:37.089Z,47.95
2022-12-25T02:40:10.515Z,44.17
2022-12-25T02:42:59.362Z,47.53
2022-12-25T02:45:29.946Z,47.75
2022-12-25T02:47:57.657Z,46.67
2022-12-25T02:50:26.445Z,42.28
2022-12-25T02:52:58.046Z,45.25
2022-12-25T02:55:32.573Z,50.10
2022-12-25T02:58:04.643Z,45.43
2022-12-25T03:00:35.163Z,41.67
2022-12-25T03:03:05.735Z,49.38
2022-12-25T03:05:35.629Z,48.45
2022-12-25T03:08:07.156Z,46.05
2022-12-25T03:10:37.821Z,47.08
2022-12-25T03:13:12.757Z,46.40
2022-12-25T03:15:39.766Z,43.38
2022-12-25T03:18:12.466Z,45.65
2022-12-25T03:20:39.514Z,50.67
2022-12-25T03:23:07.869Z,45.08
2022-12-25T03:25:34.855Z,46.03
2022-12-25T03:28:02.984Z,43.55
2022-12-25T03:30:48.685Z,44.67
2022-12-25T03:33:48.688Z,43.50
2022-12-25T03:36:30.607Z,46.22
2022-12-25T03:38:57.478Z,43.90
2022-12-25T03:41:43.317Z,45.33
2022-12-25T03:44:17.943Z,42.95
2022-12-25T03:46:49.041Z,44.00
2022-12-25T03:49:25.212Z,43.97
2022-12-25T03:51:57.333Z,44.23
2022-12-25T03:54:29.181Z,47.13
2022-12-25T03:56:57.176Z,47.05
2022-12-25T03:59:25.222Z,52.38
2022-12-25T04:01:52.495Z,50.50
2022-12-25T04:04:19.493Z,49.70
2022-12-25T04:06:46.406Z,48.08
2022-12-25T04:09:13.572Z,48.58
2022-12-25T04:11:40.413Z,48.45
2022-12-25T04:14:07.342Z,46.08
2022-12-25T04:16:34.397Z,51.47
2022-12-25T04:19:01.197Z,43.72
2022-12-25T04:21:28.197Z,48.13
2022-12-25T04:23:55.064Z,43.58
2022-12-25T04:26:22.189Z,47.92
2022-12-25T04:28:49.072Z,44.10
2022-12-25T04:31:16.053Z,45.63
2022-12-25T04:33:42.868Z,49.70
2022-12-25T04:36:09.782Z,44.85
2022-12-25T04:38:37.787Z,48.83
2022-12-25T04:41:05.052Z,50.70
2022-12-25T04:43:32.187Z,45.95
2022-12-25T04:46:01.734Z,44.95
2022-12-25T04:48:31.298Z,42.72
2022-12-25T04:50:58.481Z,40.13
2022-12-25T04:53:25.328Z,35.67
2022-12-25T04:56:01.573Z,42.80
2022-12-25T04:58:28.615Z,44.83
2022-12-25T05:01:00.083Z,42.45
2022-12-25T05:03:27.423Z,42.85
2022-12-25T05:05:54.366Z,45.33
2022-12-25T05:08:22.140Z,49.50
2022-12-25T05:10:49.604Z,44.50
2022-12-25T05:13:16.605Z,46.15
2022-12-25T05:15:44.437Z,48.28
2022-12-25T05:18:11.419Z,51.70
2022-12-25T05:20:40.225Z,52.60
2022-12-25T05:23:09.527Z,55.05
2022-12-25T05:25:39.954Z,54.08
2022-12-25T05:28:07.656Z,52.40
2022-12-25T05:30:35.345Z,55.87
2022-12-25T05:33:03.198Z,54.95
2022-12-25T05:35:30.202Z,55.03
2022-12-25T05:37:57.127Z,52.92
2022-12-25T05:40:24.570Z,53.40
2022-12-25T05:42:51.552Z,56.30
2022-12-25T05:45:18.570Z,55.40
2022-12-25T05:47:45.439Z,57.20
2022-12-25T05:50:12.429Z,54.20
2022-12-25T05:52:39.503Z,51.63
2022-12-25T05:55:06.745Z,53.03
2022-12-25T05:57:33.713Z,52.40
2022-12-25T06:00:00.688Z,55.08
2022-12-25T06:02:28.345Z,52.00
2022-12-25T06:04:55.464Z,53.78
2022-12-25T06:07:22.359Z,50.63
2022-12-25T06:09:49.249Z,51.50
2022-12-25T06:12:16.248Z,48.38
2022-12-25T06:14:43.127Z,52.13
2022-12-25T06:17:10.049Z,48.97
2022-12-25T06:19:36.953Z,50.07
2022-12-25T06:22:04.050Z,51.22
2022-12-25T06:24:31.078Z,53.90
2022-12-25T06:26:58.026Z,58.72
2022-12-25T06:29:25.006Z,49.90
2022-12-25T06:31:52.004Z,53.93
2022-12-25T06:34:18.957Z,56.40
2022-12-25T06:36:45.976Z,51.85
2022-12-25T06:39:12.944Z,53.17
2022-12-25T06:41:39.916Z,54.65
2022-12-25T06:44:06.787Z,54.07
2022-12-25T06:46:33.769Z,54.03
2022-12-25T06:49:01.225Z,47.75
2022-12-25T06:51:30.916Z,56.13
2022-12-25T06:53:59.648Z,52.50
2022-12-25T06:56:28.497Z,51.23
2022-12-25T06:59:00.851Z,52.38
2022-12-25T07:01:35.502Z,53.53
2022-12-25T07:04:11.529Z,51.70
2022-12-25T07:06:38.496Z,55.03
2022-12-25T07:09:05.315Z,54.47
2022-12-25T07:11:32.825Z,50.65
2022-12-25T07:13:59.628Z,55.67
2022-12-25T07:16:26.570Z,50.60
2022-12-25T07:18:53.518Z,59.20
2022-12-25T07:21:21.506Z,57.20
2022-12-25T07:23:50.275Z,53.20
2022-12-25T07:26:17.507Z,57.97
2022-12-25T07:28:44.873Z,57.28
2022-12-25T07:31:15.083Z,56.47
2022-12-25T07:33:42.480Z,57.90
2022-12-25T07:36:12.884Z,58.38
2022-12-25T07:38:44.075Z,53.58
2022-12-25T07:41:12.274Z,53.58
2022-12-25T07:43:39.122Z,59.03
2022-12-25T07:46:06.259Z,59.13
2022-12-25T07:48:33.354Z,53.17
2022-12-25T07:51:05.689Z,51.83
2022-12-25T07:53:33.037Z,58.67
2022-12-25T07:56:08.573Z,58.55
2022-12-25T07:58:35.486Z,47.97
2022-12-25T08:01:27.027Z,53.38
2022-12-25T08:03:57.549Z,48.65
2022-12-25T08:06:27.137Z,94.53
2022-12-25T08:08:54.103Z,85.75
2022-12-25T08:11:21.100Z,56.17
2022-12-25T08:13:47.984Z,66.95
2022-12-25T08:16:14.869Z,73.15
2022-12-25T08:18:41.793Z,62.03
2022-12-25T08:21:14.578Z,65.88
2022-12-25T08:23:46.911Z,58.33
2022-12-25T08:26:20.285Z,50.90
2022-12-25T08:28:48.504Z,52.22
2022-12-25T08:31:23.324Z,53.80
2022-12-25T08:33:53.274Z,52.17
2022-12-25T08:36:20.760Z,48.63
2022-12-25T08:38:48.013Z,45.10
2022-12-25T08:41:15.825Z,49.50
2022-12-25T08:43:43.706Z,46.88
2022-12-25T08:46:13.607Z,49.33
2022-12-25T08:48:45.370Z,49.17
2022-12-25T08:51:13.971Z,50.08
2022-12-25T08:53:45.523Z,52.40
2022-12-25T08:56:16.057Z,50.95
2022-12-25T08:58:46.373Z,51.42
2022-12-25T09:01:13.849Z,50.67
2022-12-25T09:03:43.983Z,54.45
2022-12-25T09:06:15.600Z,53.45
2022-12-25T09:08:48.777Z,51.00
2022-12-25T09:11:18.930Z,56.55
2022-12-25T09:13:49.074Z,51.43
2022-12-25T09:16:21.573Z,67.30
2022-12-25T09:18:49.094Z,61.55
2022-12-25T09:21:16.928Z,57.22
2022-12-25T09:23:44.184Z,61.10
2022-12-25T09:26:15.050Z,58.00
2022-12-25T09:28:48.513Z,56.53
2022-12-25T09:31:18.407Z,55.28
2022-12-25T09:33:45.534Z,59.08
2022-12-25T09:36:12.764Z,60.75
2022-12-25T09:38:42.558Z,59.37
2022-12-25T09:41:16.191Z,58.17
2022-12-25T09:43:50.339Z,53.92
2022-12-25T09:46:25.191Z,53.95
2022-12-25T09:49:14.018Z,61.72
2022-12-25T09:51:43.969Z,53.57
2022-12-25T09:54:22.451Z,61.22
2022-12-25T09:56:49.358Z,53.85
2022-12-25T09:59:23.177Z,52.88
2022-12-25T10:02:23.465Z,53.65
2022-12-25T10:05:05.592Z,50.87
2022-12-25T10:07:58.447Z,57.28
2022-12-25T10:10:46.692Z,48.28
2022-12-25T10:13:28.635Z,50.95
2022-12-25T10:16:30.113Z,49.35
2022-12-25T10:19:06.802Z,50.43
2022-12-25T10:21:34.120Z,41.22
2022-12-25T10:24:20.016Z,44.83
2022-12-25T10:26:48.840Z,46.03
2022-12-25T10:29:18.581Z,50.60
2022-12-25T10:31:55.122Z,52.33
2022-12-25T10:34:23.370Z,44.88
2022-12-25T10:36:51.199Z,44.53
2022-12-25T10:39:28.956Z,45.30
2022-12-25T10:42:10.781Z,47.45
2022-12-25T10:44:37.942Z,40.80
2022-12-25T10:47:05.572Z,48.50
2022-12-25T10:49:36.946Z,47.20
2022-12-25T10:52:18.491Z,45.83
2022-12-25T10:54:45.420Z,41.13
2022-12-25T10:57:18.364Z,40.73
2022-12-25T10:59:47.616Z,44.97
2022-12-25T11:02:19.451Z,42.60
2022-12-25T11:04:46.690Z,45.35
2022-12-25T11:07:15.639Z,48.83
2022-12-25T11:09:53.944Z,49.83
2022-12-25T11:12:35.129Z,53.03
2022-12-25T11:15:06.937Z,43.50
2022-12-25T11:17:36.147Z,44.20
2022-12-25T11:20:03.283Z,42.45
2022-12-25T11:22:30.436Z,48.93
2022-12-25T11:24:57.473Z,47.50
2022-12-25T11:27:27.848Z,49.88
2022-12-25T11:30:05.838Z,47.53
2022-12-25T11:32:52.147Z,52.60
2022-12-25T11:35:19.263Z,47.67
2022-12-25T11:37:49.707Z,48.40
2022-12-25T11:40:20.970Z,45.55
2022-12-25T11:42:55.414Z,47.80
2022-12-25T11:45:33.515Z,43.25
2022-12-25T11:48:10.022Z,45.00
2022-12-25T11:50:42.394Z,38.50
2022-12-25T11:53:29.299Z,41.75
2022-12-25T11:56:07.329Z,34.75
2022-12-25T11:58:41.188Z,38.22
2022-12-25T12:01:43.879Z,35.60
2022-12-25T12:04:27.435Z,38.50
2022-12-25T12:06:56.453Z,39.42
2022-12-25T12:09:41.732Z,37.67
2022-12-25T12:13:03.128Z,37.25
2022-12-25T12:15:41.747Z,39.33
2022-12-25T12:18:18.913Z,36.28
2022-12-25T12:20:46.637Z,40.90
2022-12-25T12:23:17.188Z,40.38
2022-12-25T12:25:45.239Z,35.40
2022-12-25T12:28:26.442Z,41.57
2022-12-25T12:31:00.396Z,40.97
2022-12-25T12:33:32.454Z,34.72
2022-12-25T12:36:01.556Z,33.25
2022-12-25T12:38:29.298Z,32.42
2022-12-25T12:41:02.022Z,36.07
2022-12-25T12:43:36.507Z,39.00
2022-12-25T12:46:08.658Z,37.85
2022-12-25T12:48:41.948Z,36.35
2022-12-25T12:51:34.431Z,34.35
2022-12-25T12:54:26.797Z,35.97
2022-12-25T12:57:02.425Z,37.60
2022-12-25T12:59:38.533Z,42.40
2022-12-25T13:02:47.932Z,40.58
2022-12-25T13:05:33.966Z,40.53
2022-12-25T13:08:31.729Z,41.87
2022-12-25T13:11:20.561Z,44.97
2022-12-25T13:13:50.022Z,47.33
2022-12-25T13:16:29.202Z,41.53
2022-12-25T13:18:56.939Z,43.17
2022-12-25T13:21:31.376Z,40.53
2022-12-25T13:23:59.526Z,42.90
2022-12-25T13:26:27.251Z,46.50
2022-12-25T13:28:54.364Z,49.22
2022-12-25T13:31:24.358Z,42.42
2022-12-25T13:34:17.125Z,38.37
2022-12-25T13:36:44.261Z,31.55
2022-12-25T13:39:17.322Z,35.40
2022-12-25T13:41:53.117Z,35.25
2022-12-25T13:44:24.161Z,34.35
2022-12-25T13:46:51.069Z,40.63
2022-12-25T13:49:24.248Z,33.88
2022-12-25T13:51:51.748Z,36.33
2022-12-25T13:54:19.130Z,40.50
2022-12-25T13:56:52.254Z,32.60
2022-12-25T13:59:22.141Z,35.43
2022-12-25T14:01:50.434Z,35.95
2022-12-25T14:04:21.796Z,41.00
2022-12-25T14:06:49.901Z,37.67
2022-12-25T14:09:17.384Z,42.55
2022-12-25T14:11:49.466Z,45.67
2022-12-25T14:14:23.060Z,48.08
2022-12-25T14:16:52.075Z,47.47
2022-12-25T14:19:33.996Z,46.63
2022-12-25T14:22:12.378Z,47.78
2022-12-25T14:24:40.666Z,41.63
2022-12-25T14:27:25.848Z,43.97
2022-12-25T14:29:56.895Z,43.45
2022-12-25T14:32:30.638Z,45.03
2022-12-25T14:35:00.650Z,43.45
2022-12-25T14:37:31.259Z,46.27
2022-12-25T14:40:24.612Z,43.88
2022-12-25T14:43:00.395Z,38.08
2022-12-25T14:45:30.235Z,41.15
2022-12-25T14:48:03.701Z,41.42
2022-12-25T14:50:30.497Z,40.47
2022-12-25T14:52:59.130Z,49.22
2022-12-25T14:55:30.622Z,54.90
2022-12-25T14:58:04.036Z,51.58
2022-12-25T15:00:34.606Z,60.47
2022-12-25T15:03:03.718Z,49.60
2022-12-25T15:05:37.254Z,50.17
2022-12-25T15:08:10.057Z,52.15
2022-12-25T15:13:26.253Z,50.65
2022-12-25T15:16:01.611Z,50.97
2022-12-25T15:18:34.613Z,50.75
2022-12-25T15:21:01.647Z,41.42
2022-12-25T15:23:28.825Z,47.13
2022-12-25T15:25:55.862Z,40.53
2022-12-25T15:28:22.684Z,38.93
2022-12-25T15:30:50.074Z,37.83
2022-12-25T15:33:18.661Z,36.53
2022-12-25T15:35:45.872Z,35.58
2022-12-25T15:38:13.736Z,38.00
2022-12-25T15:40:41.696Z,36.20
2022-12-25T15:43:38.996Z,35.85
2022-12-25T15:45:59.275Z,35.75
2022-12-25T15:48:26.124Z,32.65
2022-12-25T15:50:53.040Z,34.58
2022-12-25T15:53:19.876Z,37.87
2022-12-25T15:55:46.736Z,33.50
2022-12-25T15:58:13.618Z,36.05
2022-12-25T16:00:40.460Z,40.47
2022-12-25T16:03:07.625Z,43.15
2022-12-25T16:05:34.730Z,39.30
2022-12-25T16:08:01.636Z,40.97
2022-12-25T16:10:33.427Z,42.45
2022-12-25T16:13:03.544Z,41.03
2022-12-25T16:15:30.466Z,33.65
2022-12-25T16:17:57.375Z,39.47
2022-12-25T16:20:24.258Z,40.17
2022-12-25T16:22:51.153Z,40.63
2022-12-25T16:25:19.489Z,36.40
2022-12-25T16:27:46.922Z,40.92
2022-12-25T16:30:16.823Z,34.83
2022-12-25T16:32:44.604Z,40.10
2022-12-25T16:35:12.341Z,33.53
2022-12-25T16:37:39.668Z,34.63
2022-12-25T16:40:10.538Z,33.42
2022-12-25T16:42:38.578Z,32.50
2022-12-25T16:45:06.484Z,31.75
2022-12-25T16:47:33.410Z,30.05
2022-12-25T16:50:00.504Z,33.80
2022-12-25T16:52:27.540Z,35.92
2022-12-25T16:54:54.472Z,32.03
2022-12-25T16:57:21.259Z,34.53
2022-12-25T16:59:48.171Z,34.78
2022-12-25T17:02:17.560Z,33.28
2022-12-25T17:04:45.767Z,29.02
2022-12-25T17:07:14.212Z,30.63
2022-12-25T17:09:44.327Z,29.58
2022-12-25T17:12:11.647Z,34.55
2022-12-25T17:14:38.632Z,32.45
2022-12-25T17:17:05.759Z,34.03
2022-12-25T17:19:32.640Z,30.13
2022-12-25T17:21:59.677Z,31.77
2022-12-25T17:24:27.568Z,35.25
2022-12-25T17:26:54.675Z,40.83
2022-12-25T17:29:22.567Z,38.83
2022-12-25T17:31:50.227Z,39.17
2022-12-25T17:34:17.198Z,39.35
2022-12-25T17:36:44.119Z,38.15
2022-12-25T17:39:11.548Z,33.38
2022-12-25T17:41:38.515Z,31.40
2022-12-25T17:44:05.733Z,30.20
2022-12-25T17:46:32.902Z,35.85
2022-12-25T17:49:01.022Z,30.98
2022-12-25T17:51:30.467Z,31.02
2022-12-25T17:54:00.229Z,30.05
2022-12-25T17:56:27.136Z,27.20
2022-12-25T17:58:57.596Z,31.40
2022-12-25T18:01:25.827Z,27.83
2022-12-25T18:03:53.751Z,28.25
2022-12-25T18:06:22.907Z,28.10
2022-12-25T18:08:57.327Z,25.33
2022-12-25T18:11:27.668Z,21.60
2022-12-25T18:13:55.831Z,25.40
2022-12-25T18:16:24.886Z,28.20
2022-12-25T18:18:53.082Z,27.80
2022-12-25T18:21:22.033Z,26.83
2022-12-25T18:23:49.902Z,23.80
2022-12-25T18:26:17.527Z,41.97
2022-12-25T18:28:44.407Z,30.52
2022-12-25T18:31:15.967Z,31.70
2022-12-25T18:33:43.388Z,33.33
2022-12-25T18:36:15.475Z,48.30
2022-12-25T18:38:43.347Z,38.67
2022-12-25T18:41:11.167Z,36.45
2022-12-25T18:43:52.456Z,22.45
2022-12-25T18:46:26.711Z,29.03
2022-12-25T18:48:56.608Z,22.90
2022-12-25T18:51:23.780Z,20.70
2022-12-25T18:53:50.970Z,21.83
2022-12-25T18:56:18.573Z,19.45
2022-12-25T18:58:47.026Z,35.50
2022-12-25T19:01:19.703Z,42.03
2022-12-25T19:03:47.077Z,36.60
2022-12-25T19:06:22.335Z,38.55
2022-12-25T19:08:49.434Z,34.05
2022-12-25T19:11:17.156Z,30.63
2022-12-25T19:13:44.281Z,30.20
2022-12-25T19:16:11.331Z,29.42
2022-12-25T19:18:39.004Z,28.38
2022-12-25T19:21:07.740Z,29.17
2022-12-25T19:23:44.036Z,32.73
2022-12-25T19:26:12.354Z,30.33
2022-12-25T19:28:40.097Z,30.95
2022-12-25T19:31:08.695Z,30.50
2022-12-25T19:33:37.611Z,30.83
2022-12-25T19:36:14.341Z,30.57
2022-12-25T19:38:42.092Z,31.23
2022-12-25T19:41:11.623Z,30.23
2022-12-25T19:43:40.707Z,30.75
2022-12-25T19:46:10.828Z,30.17
2022-12-25T19:48:37.779Z,24.47
2022-12-25T19:51:04.757Z,27.13
2022-12-25T19:53:31.713Z,24.98
2022-12-25T19:56:02.091Z,32.40
2022-12-25T19:58:28.950Z,24.35
2022-12-25T20:01:05.531Z,24.40
2022-12-25T20:03:34.976Z,25.17
2022-12-25T20:06:06.244Z,20.20
2022-12-25T20:08:33.873Z,24.08
2022-12-25T20:11:00.839Z,18.80
2022-12-25T20:13:27.693Z,21.47
2022-12-25T20:16:00.434Z,16.08
2022-12-25T20:18:27.974Z,15.80
2022-12-25T20:21:21.786Z,17.73
2022-12-25T20:23:51.203Z,15.98
2022-12-25T20:26:20.129Z,16.50
2022-12-25T20:28:47.515Z,17.90
2022-12-25T20:31:19.029Z,18.15
2022-12-25T20:33:46.353Z,19.10
2022-12-25T20:36:13.439Z,14.68
2022-12-25T20:38:40.812Z,14.53
2022-12-25T20:41:29.969Z,14.35
2022-12-25T20:43:57.616Z,14.80
2022-12-25T20:46:25.780Z,16.52
2022-12-25T20:48:53.213Z,16.75
2022-12-25T20:51:23.275Z,16.00
2022-12-25T20:53:53.641Z,12.35
2022-12-25T20:56:24.757Z,15.98
2022-12-25T20:58:59.745Z,14.73
2022-12-25T21:01:28.538Z,14.48
2022-12-25T21:03:55.685Z,16.73
2022-12-25T21:06:23.485Z,15.52
2022-12-25T21:08:50.809Z,16.38
2022-12-25T21:11:17.923Z,17.17
2022-12-25T21:13:45.558Z,14.57
2022-12-25T21:16:15.687Z,17.17
2022-12-25T21:18:42.775Z,16.83
2022-12-25T21:21:11.182Z,19.13
2022-12-25T21:23:39.527Z,15.40
2022-12-25T21:26:32.848Z,16.33
2022-12-25T21:29:02.193Z,18.77
2022-12-25T21:31:29.984Z,19.52
2022-12-25T21:33:57.377Z,18.02
2022-12-25T21:36:32.548Z,22.70
2022-12-25T21:39:06.455Z,17.20
2022-12-25T21:41:35.753Z,14.77
2022-12-25T21:44:03.076Z,16.85
2022-12-25T21:46:30.762Z,16.35
2022-12-25T21:49:06.809Z,16.63
2022-12-25T21:51:34.648Z,17.15
2022-12-25T21:54:02.262Z,17.60
2022-12-25T21:56:39.848Z,14.35
2022-12-25T21:59:12.157Z,15.13
2022-12-25T22:01:39.133Z,17.63
2022-12-25T22:04:08.465Z,16.48
2022-12-25T22:06:35.879Z,15.77
2022-12-25T22:09:05.113Z,20.33
2022-12-25T22:11:35.331Z,17.23
2022-12-25T22:14:02.338Z,19.63
2022-12-25T22:16:29.273Z,16.92
2022-12-25T22:18:56.272Z,16.30
2022-12-25T22:21:23.459Z,18.08
2022-12-25T22:23:50.322Z,18.42
2022-12-25T22:26:20.770Z,18.40
2022-12-25T22:28:47.999Z,20.55
2022-12-25T22:31:15.084Z,19.87
2022-12-25T22:33:41.991Z,21.45
2022-12-25T22:36:09.587Z,23.50
2022-12-25T22:38:36.375Z,21.30
2022-12-25T22:41:06.612Z,16.60
2022-12-25T22:44:06.813Z,16.40
2022-12-25T22:46:20.611Z,19.00
2022-12-25T22:48:47.766Z,17.10
2022-12-25T22:51:14.780Z,18.48
2022-12-25T22:53:41.977Z,19.73
2022-12-25T22:56:09.614Z,17.53
2022-12-25T22:58:36.937Z,15.60
2022-12-25T23:01:04.542Z,17.00
2022-12-25T23:03:31.460Z,18.98
2022-12-25T23:05:58.443Z,17.85
2022-12-25T23:08:25.621Z,18.97
2022-12-25T23:10:52.881Z,18.85
2022-12-25T23:13:19.925Z,22.55
2022-12-25T23:15:46.989Z,20.55
2022-12-25T23:18:14.084Z,17.92
2022-12-25T23:20:41.185Z,17.43
2022-12-25T23:23:14.609Z,20.27
2022-12-25T23:25:41.833Z,21.67
2022-12-25T23:28:08.790Z,19.02
2022-12-25T23:30:38.778Z,17.20
2022-12-25T23:33:05.953Z,22.17
2022-12-25T23:35:33.001Z,22.17
2022-12-25T23:37:59.866Z,23.40
2022-12-25T23:40:26.802Z,25.33
2022-12-25T23:42:54.017Z,27.83
2022-12-25T23:45:20.986Z,23.53
2022-12-25T23:47:48.010Z,22.65
2022-12-25T23:50:15.029Z,18.85
2022-12-25T23:52:42.032Z,22.77
2022-12-25T23:55:09.368Z,23.15
2022-12-25T23:57:36.364Z,23.03
